sensor_id;sensor_type;location;lat;lon;timestamp;P1;durP1;ratioP1;P2;durP2;ratioP2
8007;SDS011;4049;49.468;11.200;2022-12-07T00:01:26;11.23;;;5.93;;
8007;SDS011;4049;49.468;11.200;2022-12-07T00:03:54;8.83;;;5.77;;
8007;SDS011;4049;49.468;11.200;2022-12-07T00:06:27;8.47;;;5.77;;
8007;SDS011;4049;49.468;11.200;2022-12-07T00:08:53;10.23;;;6.53;;
8007;SDS011;4049;49.468;11.200;2022-12-07T00:11:21;9.80;;;6.80;;
8007;SDS011;4049;49.468;11.200;2022-12-07T00:13:50;9.47;;;5.93;;
8007;SDS011;4049;49.468;11.200;2022-12-07T00:16:19;8.60;;;6.07;;
8007;SDS011;4049;49.468;11.200;2022-12-07T00:18:47;11.77;;;6.43;;
8007;SDS011;4049;49.468;11.200;2022-12-07T00:21:14;11.10;;;6.90;;
8007;SDS011;4049;49.468;11.200;2022-12-07T00:23:44;9.67;;;6.50;;
8007;SDS011;4049;49.468;11.200;2022-12-07T00:26:13;12.13;;;7.10;;
8007;SDS011;4049;49.468;11.200;2022-12-07T00:28:41;10.60;;;6.70;;
8007;SDS011;4049;49.468;11.200;2022-12-07T00:31:11;11.70;;;6.87;;
8007;SDS011;4049;49.468;11.200;2022-12-07T00:33:39;10.60;;;6.60;;
8007;SDS011;4049;49.468;11.200;2022-12-07T00:36:10;10.70;;;6.97;;
8007;SDS011;4049;49.468;11.200;2022-12-07T00:38:39;10.30;;;7.17;;
8007;SDS011;4049;49.468;11.200;2022-12-07T00:41:09;12.00;;;7.40;;
8007;SDS011;4049;49.468;11.200;2022-12-07T00:43:38;10.97;;;6.57;;
8007;SDS011;4049;49.468;11.200;2022-12-07T00:46:05;10.40;;;6.73;;
8007;SDS011;4049;49.468;11.200;2022-12-07T00:48:32;10.90;;;6.83;;
8007;SDS011;4049;49.468;11.200;2022-12-07T00:50:59;12.20;;;6.97;;
8007;SDS011;4049;49.468;11.200;2022-12-07T00:53:26;11.73;;;6.77;;
8007;SDS011;4049;49.468;11.200;2022-12-07T00:55:53;11.80;;;7.17;;
8007;SDS011;4049;49.468;11.200;2022-12-07T00:58:22;10.83;;;6.77;;
8007;SDS011;4049;49.468;11.200;2022-12-07T01:00:49;12.23;;;7.10;;
8007;SDS011;4049;49.468;11.200;2022-12-07T01:03:16;11.60;;;7.47;;
8007;SDS011;4049;49.468;11.200;2022-12-07T01:05:50;11.17;;;6.67;;
8007;SDS011;4049;49.468;11.200;2022-12-07T01:08:18;11.83;;;7.13;;
8007;SDS011;4049;49.468;11.200;2022-12-07T01:10:45;11.43;;;6.77;;
8007;SDS011;4049;49.468;11.200;2022-12-07T01:13:11;11.63;;;7.07;;
8007;SDS011;4049;49.468;11.200;2022-12-07T01:15:40;10.90;;;6.87;;
8007;SDS011;4049;49.468;11.200;2022-12-07T01:18:07;10.10;;;6.83;;
8007;SDS011;4049;49.468;11.200;2022-12-07T01:20:34;12.53;;;7.50;;
8007;SDS011;4049;49.468;11.200;2022-12-07T01:23:01;10.20;;;6.90;;
8007;SDS011;4049;49.468;11.200;2022-12-07T01:25:28;12.80;;;7.63;;
8007;SDS011;4049;49.468;11.200;2022-12-07T01:27:55;11.27;;;6.83;;
8007;SDS011;4049;49.468;11.200;2022-12-07T01:30:22;12.40;;;7.50;;
8007;SDS011;4049;49.468;11.200;2022-12-07T01:32:50;11.20;;;7.43;;
8007;SDS011;4049;49.468;11.200;2022-12-07T01:35:16;13.13;;;7.90;;
8007;SDS011;4049;49.468;11.200;2022-12-07T01:37:43;12.73;;;7.67;;
8007;SDS011;4049;49.468;11.200;2022-12-07T01:40:10;12.53;;;7.33;;
8007;SDS011;4049;49.468;11.200;2022-12-07T01:42:37;13.77;;;7.10;;
8007;SDS011;4049;49.468;11.200;2022-12-07T01:48:04;13.13;;;6.93;;
8007;SDS011;4049;49.468;11.200;2022-12-07T01:50:32;11.70;;;7.27;;
8007;SDS011;4049;49.468;11.200;2022-12-07T01:53:00;12.37;;;7.03;;
8007;SDS011;4049;49.468;11.200;2022-12-07T01:55:29;11.00;;;6.70;;
8007;SDS011;4049;49.468;11.200;2022-12-07T01:57:56;11.27;;;6.80;;
8007;SDS011;4049;49.468;11.200;2022-12-07T02:00:23;11.80;;;7.57;;
8007;SDS011;4049;49.468;11.200;2022-12-07T02:02:51;13.97;;;7.90;;
8007;SDS011;4049;49.468;11.200;2022-12-07T02:05:23;13.63;;;7.33;;
8007;SDS011;4049;49.468;11.200;2022-12-07T02:07:52;15.20;;;8.00;;
8007;SDS011;4049;49.468;11.200;2022-12-07T02:10:22;12.17;;;7.33;;
8007;SDS011;4049;49.468;11.200;2022-12-07T02:12:51;12.00;;;7.33;;
8007;SDS011;4049;49.468;11.200;2022-12-07T02:15:22;12.47;;;7.70;;
8007;SDS011;4049;49.468;11.200;2022-12-07T02:17:56;15.60;;;8.13;;
8007;SDS011;4049;49.468;11.200;2022-12-07T02:20:30;16.07;;;8.50;;
8007;SDS011;4049;49.468;11.200;2022-12-07T02:23:11;11.90;;;7.80;;
8007;SDS011;4049;49.468;11.200;2022-12-07T02:25:57;14.63;;;8.13;;
8007;SDS011;4049;49.468;11.200;2022-12-07T02:28:47;13.40;;;8.13;;
8007;SDS011;4049;49.468;11.200;2022-12-07T02:31:27;14.30;;;8.47;;
8007;SDS011;4049;49.468;11.200;2022-12-07T02:33:57;13.30;;;7.87;;
8007;SDS011;4049;49.468;11.200;2022-12-07T02:36:32;13.73;;;8.30;;
8007;SDS011;4049;49.468;11.200;2022-12-07T02:39:07;15.53;;;8.47;;
8007;SDS011;4049;49.468;11.200;2022-12-07T02:41:38;12.23;;;8.07;;
8007;SDS011;4049;49.468;11.200;2022-12-07T02:44:12;14.70;;;8.40;;
8007;SDS011;4049;49.468;11.200;2022-12-07T02:46:42;16.43;;;9.53;;
8007;SDS011;4049;49.468;11.200;2022-12-07T02:49:12;15.20;;;9.00;;
8007;SDS011;4049;49.468;11.200;2022-12-07T02:51:40;20.00;;;8.30;;
8007;SDS011;4049;49.468;11.200;2022-12-07T02:54:09;13.57;;;7.83;;
8007;SDS011;4049;49.468;11.200;2022-12-07T02:56:39;18.17;;;9.10;;
8007;SDS011;4049;49.468;11.200;2022-12-07T02:59:16;15.17;;;8.40;;
8007;SDS011;4049;49.468;11.200;2022-12-07T03:01:53;15.83;;;8.70;;
8007;SDS011;4049;49.468;11.200;2022-12-07T03:04:31;14.03;;;7.90;;
8007;SDS011;4049;49.468;11.200;2022-12-07T03:07:05;16.50;;;8.53;;
8007;SDS011;4049;49.468;11.200;2022-12-07T03:09:37;15.03;;;8.90;;
8007;SDS011;4049;49.468;11.200;2022-12-07T03:12:12;12.27;;;7.70;;
8007;SDS011;4049;49.468;11.200;2022-12-07T03:14:47;15.43;;;8.37;;
8007;SDS011;4049;49.468;11.200;2022-12-07T03:17:19;14.27;;;8.40;;
8007;SDS011;4049;49.468;11.200;2022-12-07T03:19:51;17.03;;;8.87;;
8007;SDS011;4049;49.468;11.200;2022-12-07T03:22:22;17.17;;;8.57;;
8007;SDS011;4049;49.468;11.200;2022-12-07T03:24:53;16.07;;;8.60;;
8007;SDS011;4049;49.468;11.200;2022-12-07T03:27:24;14.67;;;7.63;;
8007;SDS011;4049;49.468;11.200;2022-12-07T03:29:57;14.80;;;7.60;;
8007;SDS011;4049;49.468;11.200;2022-12-07T03:32:28;14.17;;;7.93;;
8007;SDS011;4049;49.468;11.200;2022-12-07T03:35:01;13.23;;;8.30;;
8007;SDS011;4049;49.468;11.200;2022-12-07T03:37:34;11.60;;;8.00;;
8007;SDS011;4049;49.468;11.200;2022-12-07T03:40:06;14.27;;;7.87;;
8007;SDS011;4049;49.468;11.200;2022-12-07T03:42:38;15.33;;;8.43;;
8007;SDS011;4049;49.468;11.200;2022-12-07T03:45:07;15.60;;;8.53;;
8007;SDS011;4049;49.468;11.200;2022-12-07T03:47:36;13.10;;;8.40;;
8007;SDS011;4049;49.468;11.200;2022-12-07T03:50:13;15.80;;;8.63;;
8007;SDS011;4049;49.468;11.200;2022-12-07T03:52:47;15.93;;;8.93;;
8007;SDS011;4049;49.468;11.200;2022-12-07T03:55:20;14.57;;;8.50;;
8007;SDS011;4049;49.468;11.200;2022-12-07T03:57:53;15.70;;;8.20;;
8007;SDS011;4049;49.468;11.200;2022-12-07T04:00:25;13.73;;;7.90;;
8007;SDS011;4049;49.468;11.200;2022-12-07T04:02:53;14.97;;;8.00;;
8007;SDS011;4049;49.468;11.200;2022-12-07T04:05:21;15.83;;;8.93;;
8007;SDS011;4049;49.468;11.200;2022-12-07T04:07:47;15.00;;;8.23;;
8007;SDS011;4049;49.468;11.200;2022-12-07T04:10:14;15.20;;;8.10;;
8007;SDS011;4049;49.468;11.200;2022-12-07T04:12:41;13.77;;;7.80;;
8007;SDS011;4049;49.468;11.200;2022-12-07T04:15:08;13.43;;;7.80;;
8007;SDS011;4049;49.468;11.200;2022-12-07T04:17:37;17.60;;;8.77;;
8007;SDS011;4049;49.468;11.200;2022-12-07T04:20:04;15.97;;;9.13;;
8007;SDS011;4049;49.468;11.200;2022-12-07T04:22:32;14.10;;;7.50;;
8007;SDS011;4049;49.468;11.200;2022-12-07T04:24:59;14.53;;;7.73;;
8007;SDS011;4049;49.468;11.200;2022-12-07T04:27:26;15.30;;;7.93;;
8007;SDS011;4049;49.468;11.200;2022-12-07T04:29:53;20.13;;;8.47;;
8007;SDS011;4049;49.468;11.200;2022-12-07T04:32:21;15.33;;;8.47;;
8007;SDS011;4049;49.468;11.200;2022-12-07T04:34:49;16.40;;;7.97;;
8007;SDS011;4049;49.468;11.200;2022-12-07T04:37:16;14.47;;;7.47;;
8007;SDS011;4049;49.468;11.200;2022-12-07T04:39:43;15.83;;;8.47;;
8007;SDS011;4049;49.468;11.200;2022-12-07T04:42:10;11.70;;;7.27;;
8007;SDS011;4049;49.468;11.200;2022-12-07T04:44:37;16.77;;;8.57;;
8007;SDS011;4049;49.468;11.200;2022-12-07T04:47:04;14.63;;;8.03;;
8007;SDS011;4049;49.468;11.200;2022-12-07T04:49:31;15.97;;;8.20;;
8007;SDS011;4049;49.468;11.200;2022-12-07T04:51:59;15.20;;;8.23;;
8007;SDS011;4049;49.468;11.200;2022-12-07T04:54:26;18.07;;;8.33;;
8007;SDS011;4049;49.468;11.200;2022-12-07T04:56:53;18.33;;;8.43;;
8007;SDS011;4049;49.468;11.200;2022-12-07T04:59:20;16.03;;;8.83;;
8007;SDS011;4049;49.468;11.200;2022-12-07T05:01:46;14.23;;;8.17;;
8007;SDS011;4049;49.468;11.200;2022-12-07T05:04:13;18.37;;;8.83;;
8007;SDS011;4049;49.468;11.200;2022-12-07T05:06:41;18.93;;;9.67;;
8007;SDS011;4049;49.468;11.200;2022-12-07T05:09:09;19.57;;;9.53;;
8007;SDS011;4049;49.468;11.200;2022-12-07T05:11:36;15.83;;;8.83;;
8007;SDS011;4049;49.468;11.200;2022-12-07T05:14:06;19.83;;;9.47;;
8007;SDS011;4049;49.468;11.200;2022-12-07T05:16:36;17.97;;;8.90;;
8007;SDS011;4049;49.468;11.200;2022-12-07T05:19:03;18.77;;;9.47;;
8007;SDS011;4049;49.468;11.200;2022-12-07T05:21:30;21.23;;;9.13;;
8007;SDS011;4049;49.468;11.200;2022-12-07T05:23:57;17.60;;;10.10;;
8007;SDS011;4049;49.468;11.200;2022-12-07T05:26:27;16.00;;;8.43;;
8007;SDS011;4049;49.468;11.200;2022-12-07T05:28:54;19.73;;;9.60;;
8007;SDS011;4049;49.468;11.200;2022-12-07T05:31:22;19.10;;;9.73;;
8007;SDS011;4049;49.468;11.200;2022-12-07T05:33:50;20.20;;;9.77;;
8007;SDS011;4049;49.468;11.200;2022-12-07T05:36:17;19.80;;;10.47;;
8007;SDS011;4049;49.468;11.200;2022-12-07T05:38:44;17.53;;;8.97;;
8007;SDS011;4049;49.468;11.200;2022-12-07T05:41:12;18.50;;;8.87;;
8007;SDS011;4049;49.468;11.200;2022-12-07T05:43:56;21.23;;;9.70;;
8007;SDS011;4049;49.468;11.200;2022-12-07T05:46:23;18.07;;;9.53;;
8007;SDS011;4049;49.468;11.200;2022-12-07T05:48:49;20.47;;;10.03;;
8007;SDS011;4049;49.468;11.200;2022-12-07T05:51:17;21.97;;;10.90;;
8007;SDS011;4049;49.468;11.200;2022-12-07T05:53:43;17.87;;;10.20;;
8007;SDS011;4049;49.468;11.200;2022-12-07T05:56:10;21.10;;;9.13;;
8007;SDS011;4049;49.468;11.200;2022-12-07T05:58:37;17.80;;;9.70;;
8007;SDS011;4049;49.468;11.200;2022-12-07T06:01:23;25.07;;;10.33;;
8007;SDS011;4049;49.468;11.200;2022-12-07T06:03:50;19.67;;;9.80;;
8007;SDS011;4049;49.468;11.200;2022-12-07T06:06:17;22.40;;;10.30;;
8007;SDS011;4049;49.468;11.200;2022-12-07T06:08:43;20.83;;;10.47;;
8007;SDS011;4049;49.468;11.200;2022-12-07T06:11:10;17.60;;;9.50;;
8007;SDS011;4049;49.468;11.200;2022-12-07T06:13:55;18.93;;;9.73;;
8007;SDS011;4049;49.468;11.200;2022-12-07T06:16:21;20.53;;;11.33;;
8007;SDS011;4049;49.468;11.200;2022-12-07T06:18:50;20.23;;;9.63;;
8007;SDS011;4049;49.468;11.200;2022-12-07T06:21:16;21.93;;;10.07;;
8007;SDS011;4049;49.468;11.200;2022-12-07T06:23:43;19.47;;;9.83;;
8007;SDS011;4049;49.468;11.200;2022-12-07T06:26:10;18.60;;;9.47;;
8007;SDS011;4049;49.468;11.200;2022-12-07T06:28:37;20.17;;;10.27;;
8007;SDS011;4049;49.468;11.200;2022-12-07T06:31:04;23.83;;;11.03;;
8007;SDS011;4049;49.468;11.200;2022-12-07T06:33:32;19.83;;;10.73;;
8007;SDS011;4049;49.468;11.200;2022-12-07T06:35:59;23.00;;;11.33;;
8007;SDS011;4049;49.468;11.200;2022-12-07T06:38:25;22.60;;;10.57;;
8007;SDS011;4049;49.468;11.200;2022-12-07T06:40:52;18.67;;;9.57;;
8007;SDS011;4049;49.468;11.200;2022-12-07T06:43:19;18.63;;;9.30;;
8007;SDS011;4049;49.468;11.200;2022-12-07T06:45:46;19.20;;;10.03;;
8007;SDS011;4049;49.468;11.200;2022-12-07T06:48:13;20.77;;;9.30;;
8007;SDS011;4049;49.468;11.200;2022-12-07T06:50:43;22.60;;;11.13;;
8007;SDS011;4049;49.468;11.200;2022-12-07T06:53:10;19.47;;;10.10;;
8007;SDS011;4049;49.468;11.200;2022-12-07T06:55:37;20.83;;;10.50;;
8007;SDS011;4049;49.468;11.200;2022-12-07T06:58:04;20.03;;;10.40;;
8007;SDS011;4049;49.468;11.200;2022-12-07T07:00:31;20.30;;;10.37;;
8007;SDS011;4049;49.468;11.200;2022-12-07T07:02:59;22.20;;;10.67;;
8007;SDS011;4049;49.468;11.200;2022-12-07T07:05:26;21.40;;;10.43;;
8007;SDS011;4049;49.468;11.200;2022-12-07T07:07:55;20.70;;;10.13;;
8007;SDS011;4049;49.468;11.200;2022-12-07T07:10:21;23.17;;;10.27;;
8007;SDS011;4049;49.468;11.200;2022-12-07T07:12:48;21.70;;;10.33;;
8007;SDS011;4049;49.468;11.200;2022-12-07T07:15:15;22.33;;;11.23;;
8007;SDS011;4049;49.468;11.200;2022-12-07T07:17:42;21.93;;;11.27;;
8007;SDS011;4049;49.468;11.200;2022-12-07T07:20:10;24.83;;;11.23;;
8007;SDS011;4049;49.468;11.200;2022-12-07T07:22:38;23.13;;;11.07;;
8007;SDS011;4049;49.468;11.200;2022-12-07T07:25:06;26.43;;;12.03;;
8007;SDS011;4049;49.468;11.200;2022-12-07T07:27:33;25.77;;;11.77;;
8007;SDS011;4049;49.468;11.200;2022-12-07T07:30:00;23.73;;;11.47;;
8007;SDS011;4049;49.468;11.200;2022-12-07T07:32:27;22.83;;;11.27;;
8007;SDS011;4049;49.468;11.200;2022-12-07T07:34:54;20.53;;;11.07;;
8007;SDS011;4049;49.468;11.200;2022-12-07T07:37:20;21.37;;;11.20;;
8007;SDS011;4049;49.468;11.200;2022-12-07T07:39:48;22.57;;;10.43;;
8007;SDS011;4049;49.468;11.200;2022-12-07T07:42:16;24.03;;;11.10;;
8007;SDS011;4049;49.468;11.200;2022-12-07T07:44:43;24.77;;;11.23;;
8007;SDS011;4049;49.468;11.200;2022-12-07T07:47:09;21.43;;;10.17;;
8007;SDS011;4049;49.468;11.200;2022-12-07T07:49:36;21.70;;;10.77;;
8007;SDS011;4049;49.468;11.200;2022-12-07T07:52:04;23.03;;;10.33;;
8007;SDS011;4049;49.468;11.200;2022-12-07T07:54:32;21.60;;;10.40;;
8007;SDS011;4049;49.468;11.200;2022-12-07T07:56:59;20.97;;;10.37;;
8007;SDS011;4049;49.468;11.200;2022-12-07T07:59:27;20.57;;;10.43;;
8007;SDS011;4049;49.468;11.200;2022-12-07T08:01:54;22.10;;;10.77;;
8007;SDS011;4049;49.468;11.200;2022-12-07T08:04:21;22.30;;;10.40;;
8007;SDS011;4049;49.468;11.200;2022-12-07T08:06:47;24.97;;;11.43;;
8007;SDS011;4049;49.468;11.200;2022-12-07T08:09:14;25.87;;;10.83;;
8007;SDS011;4049;49.468;11.200;2022-12-07T08:11:41;23.70;;;10.47;;
8007;SDS011;4049;49.468;11.200;2022-12-07T08:14:09;23.83;;;11.57;;
8007;SDS011;4049;49.468;11.200;2022-12-07T08:16:38;25.47;;;11.43;;
8007;SDS011;4049;49.468;11.200;2022-12-07T08:19:05;22.00;;;10.73;;
8007;SDS011;4049;49.468;11.200;2022-12-07T08:21:32;25.47;;;10.90;;
8007;SDS011;4049;49.468;11.200;2022-12-07T08:23:59;22.33;;;10.93;;
8007;SDS011;4049;49.468;11.200;2022-12-07T08:26:26;25.07;;;11.10;;
8007;SDS011;4049;49.468;11.200;2022-12-07T08:28:53;23.87;;;12.00;;
8007;SDS011;4049;49.468;11.200;2022-12-07T08:31:20;26.57;;;11.53;;
8007;SDS011;4049;49.468;11.200;2022-12-07T08:33:48;22.67;;;10.43;;
8007;SDS011;4049;49.468;11.200;2022-12-07T08:36:15;24.10;;;11.60;;
8007;SDS011;4049;49.468;11.200;2022-12-07T08:38:42;24.33;;;10.60;;
8007;SDS011;4049;49.468;11.200;2022-12-07T08:41:09;26.23;;;11.33;;
8007;SDS011;4049;49.468;11.200;2022-12-07T08:43:36;22.37;;;10.57;;
8007;SDS011;4049;49.468;11.200;2022-12-07T08:46:06;20.53;;;10.50;;
8007;SDS011;4049;49.468;11.200;2022-12-07T08:48:36;21.47;;;10.20;;
8007;SDS011;4049;49.468;11.200;2022-12-07T08:51:08;25.60;;;11.00;;
8007;SDS011;4049;49.468;11.200;2022-12-07T08:53:35;23.60;;;11.50;;
8007;SDS011;4049;49.468;11.200;2022-12-07T08:56:04;24.90;;;11.60;;
8007;SDS011;4049;49.468;11.200;2022-12-07T08:58:32;23.53;;;10.83;;
8007;SDS011;4049;49.468;11.200;2022-12-07T09:01:00;21.20;;;9.90;;
8007;SDS011;4049;49.468;11.200;2022-12-07T09:03:27;21.63;;;9.97;;
8007;SDS011;4049;49.468;11.200;2022-12-07T09:05:54;23.97;;;10.73;;
8007;SDS011;4049;49.468;11.200;2022-12-07T09:08:22;17.70;;;9.80;;
8007;SDS011;4049;49.468;11.200;2022-12-07T09:10:56;23.03;;;10.90;;
8007;SDS011;4049;49.468;11.200;2022-12-07T09:13:22;24.33;;;10.57;;
8007;SDS011;4049;49.468;11.200;2022-12-07T09:15:49;21.63;;;10.03;;
8007;SDS011;4049;49.468;11.200;2022-12-07T09:18:17;20.80;;;10.50;;
8007;SDS011;4049;49.468;11.200;2022-12-07T09:20:44;20.63;;;10.67;;
8007;SDS011;4049;49.468;11.200;2022-12-07T09:23:11;21.53;;;10.00;;
8007;SDS011;4049;49.468;11.200;2022-12-07T09:25:39;28.13;;;11.07;;
8007;SDS011;4049;49.468;11.200;2022-12-07T09:28:06;19.67;;;9.80;;
8007;SDS011;4049;49.468;11.200;2022-12-07T09:30:33;24.20;;;10.50;;
8007;SDS011;4049;49.468;11.200;2022-12-07T09:33:00;18.13;;;9.43;;
8007;SDS011;4049;49.468;11.200;2022-12-07T09:35:27;20.30;;;9.97;;
8007;SDS011;4049;49.468;11.200;2022-12-07T09:37:54;17.07;;;8.77;;
8007;SDS011;4049;49.468;11.200;2022-12-07T09:40:21;19.60;;;9.37;;
8007;SDS011;4049;49.468;11.200;2022-12-07T09:42:51;19.43;;;9.00;;
8007;SDS011;4049;49.468;11.200;2022-12-07T09:45:21;17.70;;;8.03;;
8007;SDS011;4049;49.468;11.200;2022-12-07T09:47:49;18.50;;;9.40;;
8007;SDS011;4049;49.468;11.200;2022-12-07T09:50:17;17.17;;;8.43;;
8007;SDS011;4049;49.468;11.200;2022-12-07T09:52:47;17.80;;;8.83;;
8007;SDS011;4049;49.468;11.200;2022-12-07T09:55:16;15.47;;;7.97;;
8007;SDS011;4049;49.468;11.200;2022-12-07T09:57:47;16.90;;;8.63;;
8007;SDS011;4049;49.468;11.200;2022-12-07T10:00:19;16.60;;;8.10;;
8007;SDS011;4049;49.468;11.200;2022-12-07T10:02:47;16.97;;;8.17;;
8007;SDS011;4049;49.468;11.200;2022-12-07T10:05:20;17.30;;;8.07;;
8007;SDS011;4049;49.468;11.200;2022-12-07T10:07:50;18.90;;;8.73;;
8007;SDS011;4049;49.468;11.200;2022-12-07T10:10:18;16.97;;;8.47;;
8007;SDS011;4049;49.468;11.200;2022-12-07T10:12:53;17.30;;;8.67;;
8007;SDS011;4049;49.468;11.200;2022-12-07T10:15:23;15.37;;;8.70;;
8007;SDS011;4049;49.468;11.200;2022-12-07T10:18:14;19.60;;;9.20;;
8007;SDS011;4049;49.468;11.200;2022-12-07T10:20:45;17.63;;;8.60;;
8007;SDS011;4049;49.468;11.200;2022-12-07T10:23:14;16.50;;;7.27;;
8007;SDS011;4049;49.468;11.200;2022-12-07T10:25:42;17.30;;;8.90;;
8007;SDS011;4049;49.468;11.200;2022-12-07T10:28:12;16.43;;;7.87;;
8007;SDS011;4049;49.468;11.200;2022-12-07T10:30:48;16.17;;;8.17;;
8007;SDS011;4049;49.468;11.200;2022-12-07T10:33:27;18.27;;;9.37;;
8007;SDS011;4049;49.468;11.200;2022-12-07T10:35:55;15.67;;;7.90;;
8007;SDS011;4049;49.468;11.200;2022-12-07T10:38:23;18.07;;;7.57;;
8007;SDS011;4049;49.468;11.200;2022-12-07T10:40:54;15.03;;;8.40;;
8007;SDS011;4049;49.468;11.200;2022-12-07T10:43:30;13.67;;;7.33;;
8007;SDS011;4049;49.468;11.200;2022-12-07T10:46:17;16.40;;;8.10;;
8007;SDS011;4049;49.468;11.200;2022-12-07T10:49:15;15.43;;;8.13;;
8007;SDS011;4049;49.468;11.200;2022-12-07T10:51:58;16.23;;;8.03;;
8007;SDS011;4049;49.468;11.200;2022-12-07T10:54:37;16.40;;;9.20;;
8007;SDS011;4049;49.468;11.200;2022-12-07T10:57:16;16.97;;;8.27;;
8007;SDS011;4049;49.468;11.200;2022-12-07T11:00:00;19.60;;;8.83;;
8007;SDS011;4049;49.468;11.200;2022-12-07T11:02:39;14.40;;;8.27;;
8007;SDS011;4049;49.468;11.200;2022-12-07T11:05:22;17.27;;;8.77;;
8007;SDS011;4049;49.468;11.200;2022-12-07T11:07:57;16.50;;;8.90;;
8007;SDS011;4049;49.468;11.200;2022-12-07T11:10:30;15.20;;;7.60;;
8007;SDS011;4049;49.468;11.200;2022-12-07T11:13:13;16.73;;;8.47;;
8007;SDS011;4049;49.468;11.200;2022-12-07T11:16:00;19.40;;;8.07;;
8007;SDS011;4049;49.468;11.200;2022-12-07T11:18:36;15.77;;;8.27;;
8007;SDS011;4049;49.468;11.200;2022-12-07T11:21:10;12.50;;;7.77;;
8007;SDS011;4049;49.468;11.200;2022-12-07T11:23:45;14.37;;;7.70;;
8007;SDS011;4049;49.468;11.200;2022-12-07T11:26:20;17.00;;;8.53;;
8007;SDS011;4049;49.468;11.200;2022-12-07T11:31:54;18.97;;;8.07;;
8007;SDS011;4049;49.468;11.200;2022-12-07T11:34:35;16.10;;;7.93;;
8007;SDS011;4049;49.468;11.200;2022-12-07T11:37:07;16.97;;;9.20;;
8007;SDS011;4049;49.468;11.200;2022-12-07T11:39:39;17.87;;;8.07;;
8007;SDS011;4049;49.468;11.200;2022-12-07T11:42:13;14.83;;;7.60;;
8007;SDS011;4049;49.468;11.200;2022-12-07T11:44:45;15.37;;;8.73;;
8007;SDS011;4049;49.468;11.200;2022-12-07T11:47:20;19.17;;;8.87;;
8007;SDS011;4049;49.468;11.200;2022-12-07T11:49:56;15.40;;;9.13;;
8007;SDS011;4049;49.468;11.200;2022-12-07T11:52:32;14.50;;;7.73;;
8007;SDS011;4049;49.468;11.200;2022-12-07T11:55:14;15.97;;;8.40;;
8007;SDS011;4049;49.468;11.200;2022-12-07T11:57:46;12.67;;;7.27;;
8007;SDS011;4049;49.468;11.200;2022-12-07T12:00:18;16.17;;;8.27;;
8007;SDS011;4049;49.468;11.200;2022-12-07T12:02:46;16.20;;;8.67;;
8007;SDS011;4049;49.468;11.200;2022-12-07T12:05:19;15.83;;;8.33;;
8007;SDS011;4049;49.468;11.200;2022-12-07T12:07:49;14.73;;;9.00;;
8007;SDS011;4049;49.468;11.200;2022-12-07T12:10:22;15.87;;;8.67;;
8007;SDS011;4049;49.468;11.200;2022-12-07T12:13:19;16.33;;;8.73;;
8007;SDS011;4049;49.468;11.200;2022-12-07T12:16:08;20.53;;;8.20;;
8007;SDS011;4049;49.468;11.200;2022-12-07T12:18:51;14.60;;;8.63;;
8007;SDS011;4049;49.468;11.200;2022-12-07T12:21:29;17.07;;;8.93;;
8007;SDS011;4049;49.468;11.200;2022-12-07T12:23:58;17.57;;;8.97;;
8007;SDS011;4049;49.468;11.200;2022-12-07T12:26:28;15.87;;;8.33;;
8007;SDS011;4049;49.468;11.200;2022-12-07T12:28:58;17.83;;;9.30;;
8007;SDS011;4049;49.468;11.200;2022-12-07T12:31:37;16.30;;;9.23;;
8007;SDS011;4049;49.468;11.200;2022-12-07T12:36:58;15.63;;;8.83;;
8007;SDS011;4049;49.468;11.200;2022-12-07T12:39:25;18.47;;;8.20;;
8007;SDS011;4049;49.468;11.200;2022-12-07T12:41:53;14.83;;;8.33;;
8007;SDS011;4049;49.468;11.200;2022-12-07T12:47:39;16.73;;;8.93;;
8007;SDS011;4049;49.468;11.200;2022-12-07T12:50:19;17.43;;;8.53;;
8007;SDS011;4049;49.468;11.200;2022-12-07T12:52:50;16.53;;;8.60;;
8007;SDS011;4049;49.468;11.200;2022-12-07T12:55:23;14.20;;;7.90;;
8007;SDS011;4049;49.468;11.200;2022-12-07T12:58:28;16.63;;;8.43;;
8007;SDS011;4049;49.468;11.200;2022-12-07T13:07:47;16.63;;;8.70;;
8007;SDS011;4049;49.468;11.200;2022-12-07T13:10:29;14.17;;;8.00;;
8007;SDS011;4049;49.468;11.200;2022-12-07T13:13:02;17.17;;;8.60;;
8007;SDS011;4049;49.468;11.200;2022-12-07T13:15:32;14.53;;;8.57;;
8007;SDS011;4049;49.468;11.200;2022-12-07T13:18:02;14.50;;;8.73;;
8007;SDS011;4049;49.468;11.200;2022-12-07T13:20:44;15.90;;;8.33;;
8007;SDS011;4049;49.468;11.200;2022-12-07T13:23:18;18.03;;;8.90;;
8007;SDS011;4049;49.468;11.200;2022-12-07T13:28:40;18.77;;;8.33;;
8007;SDS011;4049;49.468;11.200;2022-12-07T13:31:11;15.57;;;9.20;;
8007;SDS011;4049;49.468;11.200;2022-12-07T13:33:49;15.17;;;8.60;;
8007;SDS011;4049;49.468;11.200;2022-12-07T13:36:20;16.57;;;9.10;;
8007;SDS011;4049;49.468;11.200;2022-12-07T13:38:52;17.13;;;9.10;;
8007;SDS011;4049;49.468;11.200;2022-12-07T13:41:23;20.57;;;9.13;;
8007;SDS011;4049;49.468;11.200;2022-12-07T13:43:53;20.20;;;9.30;;
8007;SDS011;4049;49.468;11.200;2022-12-07T13:46:29;13.93;;;8.47;;
8007;SDS011;4049;49.468;11.200;2022-12-07T13:49:03;17.13;;;8.10;;
8007;SDS011;4049;49.468;11.200;2022-12-07T13:51:47;14.27;;;7.47;;
8007;SDS011;4049;49.468;11.200;2022-12-07T13:54:16;15.60;;;9.23;;
8007;SDS011;4049;49.468;11.200;2022-12-07T13:56:44;18.80;;;8.53;;
8007;SDS011;4049;49.468;11.200;2022-12-07T13:59:16;12.90;;;7.53;;
8007;SDS011;4049;49.468;11.200;2022-12-07T14:01:45;12.50;;;7.83;;
8007;SDS011;4049;49.468;11.200;2022-12-07T14:04:16;15.87;;;8.87;;
8007;SDS011;4049;49.468;11.200;2022-12-07T14:06:48;14.57;;;7.73;;
8007;SDS011;4049;49.468;11.200;2022-12-07T14:09:19;14.80;;;8.43;;
8007;SDS011;4049;49.468;11.200;2022-12-07T14:11:49;14.53;;;8.23;;
8007;SDS011;4049;49.468;11.200;2022-12-07T14:14:18;14.73;;;7.83;;
8007;SDS011;4049;49.468;11.200;2022-12-07T14:16:55;14.03;;;7.77;;
8007;SDS011;4049;49.468;11.200;2022-12-07T14:19:46;13.60;;;8.13;;
8007;SDS011;4049;49.468;11.200;2022-12-07T14:22:25;14.87;;;7.60;;
8007;SDS011;4049;49.468;11.200;2022-12-07T14:27:47;17.70;;;8.93;;
8007;SDS011;4049;49.468;11.200;2022-12-07T14:30:18;12.67;;;8.00;;
8007;SDS011;4049;49.468;11.200;2022-12-07T14:32:45;18.57;;;9.80;;
8007;SDS011;4049;49.468;11.200;2022-12-07T14:35:16;18.10;;;8.73;;
8007;SDS011;4049;49.468;11.200;2022-12-07T14:37:44;14.73;;;8.17;;
8007;SDS011;4049;49.468;11.200;2022-12-07T14:40:12;17.97;;;8.77;;
8007;SDS011;4049;49.468;11.200;2022-12-07T14:42:42;14.93;;;8.27;;
8007;SDS011;4049;49.468;11.200;2022-12-07T14:45:13;13.17;;;7.77;;
8007;SDS011;4049;49.468;11.200;2022-12-07T14:47:42;16.23;;;8.57;;
8007;SDS011;4049;49.468;11.200;2022-12-07T14:50:11;13.20;;;7.80;;
8007;SDS011;4049;49.468;11.200;2022-12-07T14:52:38;13.93;;;7.93;;
8007;SDS011;4049;49.468;11.200;2022-12-07T14:55:08;12.60;;;7.33;;
8007;SDS011;4049;49.468;11.200;2022-12-07T14:57:41;11.03;;;6.57;;
8007;SDS011;4049;49.468;11.200;2022-12-07T15:00:09;11.23;;;6.57;;
8007;SDS011;4049;49.468;11.200;2022-12-07T15:02:40;8.87;;;5.40;;
8007;SDS011;4049;49.468;11.200;2022-12-07T15:05:07;9.00;;;4.80;;
8007;SDS011;4049;49.468;11.200;2022-12-07T15:07:34;10.20;;;4.70;;
8007;SDS011;4049;49.468;11.200;2022-12-07T15:10:01;8.20;;;4.77;;
8007;SDS011;4049;49.468;11.200;2022-12-07T15:12:29;7.67;;;4.13;;
8007;SDS011;4049;49.468;11.200;2022-12-07T15:14:57;11.13;;;5.40;;
8007;SDS011;4049;49.468;11.200;2022-12-07T15:17:24;7.17;;;4.07;;
8007;SDS011;4049;49.468;11.200;2022-12-07T15:19:50;8.67;;;4.20;;
8007;SDS011;4049;49.468;11.200;2022-12-07T15:22:17;8.07;;;4.37;;
8007;SDS011;4049;49.468;11.200;2022-12-07T15:24:44;8.40;;;4.27;;
8007;SDS011;4049;49.468;11.200;2022-12-07T15:27:11;7.20;;;5.03;;
8007;SDS011;4049;49.468;11.200;2022-12-07T15:29:38;8.50;;;4.87;;